Time;durP1;ratioP1;P1;durP2;ratioP2;P2;SDS_P1;SDS_P2;PMS_P1;PMS_P2;Temp;Humidity;BMP_temperature;BMP_pressure;BME280_temperature;BME280_humidity;BME280_pressure;Samples;Min_cycle;Max_cycle;Signal;HPM_P1;HPM_P2
2023/08/17 00:01:58;;;;;;;15.23;12.05;;;;;;;20.97;100.00;94750.25;4884613;29;20032;-86
2023/08/17 00:04:23;;;;;;;15.18;11.50;;;;;;;21.08;100.00;94743.44;4884095;29;20041;-87
2023/08/17 00:06:49;;;;;;;16.38;11.93;;;;;;;21.13;100.00;94742.47;4901318;29;20040;-87
2023/08/17 00:09:14;;;;;;;17.05;11.88;;;;;;;21.23;100.00;94747.44;4884630;29;20036;-86
2023/08/17 00:11:39;;;;;;;16.85;12.85;;;;;;;20.79;100.00;94733.59;4884366;29;20147;-86
2023/08/17 00:14:05;;;;;;;15.27;12.15;;;;;;;20.99;100.00;94738.19;4868785;29;20036;-87
2023/08/17 00:16:31;;;;;;;14.70;11.82;;;;;;;21.00;100.00;94736.28;4868844;29;20072;-87
2023/08/17 00:18:57;;;;;;;16.83;11.48;;;;;;;21.02;100.00;94726.88;4884280;29;20345;-86
2023/08/17 00:21:22;;;;;;;15.23;11.50;;;;;;;20.99;100.00;94732.88;4900761;29;20043;-86
2023/08/17 00:23:47;;;;;;;14.40;11.73;;;;;;;21.01;100.00;94730.66;4899671;29;20092;-87
2023/08/17 00:26:14;;;;;;;19.15;12.13;;;;;;;20.97;100.00;94729.75;4868758;29;20099;-86
2023/08/17 00:28:39;;;;;;;14.35;11.60;;;;;;;21.12;100.00;94722.28;4900644;29;20068;-87
2023/08/17 00:31:04;;;;;;;17.10;12.18;;;;;;;20.65;100.00;94728.53;4884166;29;20579;-87
2023/08/17 00:33:30;;;;;;;20.15;13.00;;;;;;;20.26;100.00;94725.91;4884205;29;20495;-87
2023/08/17 00:35:55;;;;;;;22.88;13.63;;;;;;;20.15;100.00;94720.94;4900614;29;20115;-87
2023/08/17 00:38:21;;;;;;;16.88;12.45;;;;;;;20.34;100.00;94727.72;4884445;29;20036;-86
2023/08/17 00:40:47;;;;;;;15.18;11.48;;;;;;;20.56;100.00;94734.66;4883596;29;20047;-86
2023/08/17 00:43:12;;;;;;;17.40;12.48;;;;;;;20.55;100.00;94733.09;4883363;29;20079;-86
2023/08/17 00:45:37;;;;;;;15.90;11.88;;;;;;;20.68;100.00;94728.66;4883379;29;20068;-87
2023/08/17 00:48:07;;;;;;;19.40;11.45;;;;;;;20.59;100.00;94723.41;4883805;29;20055;-87
2023/08/17 00:50:33;;;;;;;14.45;11.38;;;;;;;20.46;100.00;94730.50;4899420;29;20037;-87
2023/08/17 00:52:59;;;;;;;18.13;11.60;;;;;;;20.61;100.00;94728.38;4883723;29;20443;-87
2023/08/17 00:55:24;;;;;;;18.65;12.40;;;;;;;20.83;100.00;94726.56;4883311;29;20033;-87
2023/08/17 00:57:51;;;;;;;14.57;11.35;;;;;;;20.84;100.00;94720.13;4900312;29;20036;-86
2023/08/17 01:00:17;;;;;;;16.92;11.98;;;;;;;20.68;100.00;94719.88;4883388;29;20124;-86
2023/08/17 01:02:43;;;;;;;16.17;11.82;;;;;;;20.57;100.00;94717.59;4883208;29;20123;-87
2023/08/17 01:05:08;;;;;;;16.52;12.45;;;;;;;20.42;100.00;94716.28;4867935;29;20047;-87
2023/08/17 01:07:34;;;;;;;15.40;12.00;;;;;;;20.34;100.00;94717.09;4883440;29;20075;-87
2023/08/17 01:10:00;;;;;;;18.48;13.57;;;;;;;20.00;100.00;94714.25;4867082;29;20076;-87
2023/08/17 01:12:31;;;;;;;16.33;12.95;;;;;;;19.80;100.00;94713.06;4900147;29;20044;-87
2023/08/17 01:15:15;;;;;;;18.55;14.00;;;;;;;19.76;100.00;94723.56;4885710;29;20064;-87
2023/08/17 01:17:54;;;;;;;16.83;12.77;;;;;;;19.88;100.00;94722.13;4886182;29;20096;-86
2023/08/17 01:20:21;;;;;;;19.48;12.50;;;;;;;20.15;100.00;94712.97;4885525;29;20041;-86
2023/08/17 01:22:50;;;;;;;16.30;12.23;;;;;;;20.32;100.00;94720.09;4871616;29;20358;-87
2023/08/17 01:25:16;;;;;;;17.15;12.10;;;;;;;20.23;100.00;94719.34;4867011;29;20481;-87
2023/08/17 01:27:45;;;;;;;15.10;12.70;;;;;;;20.21;100.00;94718.88;4867262;29;20060;-87
2023/08/17 01:30:16;;;;;;;16.55;13.02;;;;;;;20.08;100.00;94712.66;4880499;29;20544;-87
2023/08/17 01:32:45;;;;;;;21.58;13.15;;;;;;;20.13;100.00;94709.84;4885696;29;20084;-86
2023/08/17 01:35:35;;;;;;;20.90;12.27;;;;;;;20.27;100.00;94711.50;4885274;29;20078;-86
2023/08/17 01:38:04;;;;;;;21.52;12.68;;;;;;;20.23;100.00;94711.38;4902175;29;20038;-87
2023/08/17 01:40:33;;;;;;;18.48;12.52;;;;;;;20.32;100.00;94717.44;4870310;29;20055;-87
2023/08/17 01:43:02;;;;;;;15.77;11.80;;;;;;;20.57;100.00;94722.16;4885588;29;20056;-87
2023/08/17 01:45:27;;;;;;;17.63;12.70;;;;;;;20.43;100.00;94717.03;4885367;29;20358;-87
2023/08/17 01:47:55;;;;;;;15.02;12.10;;;;;;;20.33;100.00;94716.31;4885784;29;20033;-87
2023/08/17 01:50:20;;;;;;;15.82;11.77;;;;;;;20.32;100.00;94713.97;4882613;29;20044;-86
2023/08/17 01:52:45;;;;;;;15.77;11.60;;;;;;;20.24;100.00;94714.81;4868513;29;20052;-87
2023/08/17 01:55:11;;;;;;;13.18;10.95;;;;;;;20.54;100.00;94714.81;4864127;29;20033;-87
2023/08/17 01:57:36;;;;;;;13.55;10.75;;;;;;;20.72;100.00;94716.25;4864053;29;20040;-86
2023/08/17 02:00:04;;;;;;;14.82;11.25;;;;;;;20.72;100.00;94712.81;4880375;29;20069;-87
2023/08/17 02:02:35;;;;;;;13.27;10.30;;;;;;;20.82;100.00;94711.69;4864064;29;20119;-88
2023/08/17 02:05:01;;;;;;;12.13;10.13;;;;;;;21.02;100.00;94702.91;4864302;29;20359;-86
2023/08/17 02:07:26;;;;;;;14.98;9.93;;;;;;;21.13;100.00;94705.19;4863731;29;20040;-87
2023/08/17 02:09:52;;;;;;;13.18;9.93;;;;;;;21.08;100.00;94705.38;4864173;29;20324;-87
2023/08/17 02:12:17;;;;;;;17.80;10.45;;;;;;;21.12;100.00;94717.72;4863834;29;20044;-87
2023/08/17 02:14:42;;;;;;;18.02;11.10;;;;;;;20.79;100.00;94715.75;4879499;29;20077;-87
2023/08/17 02:17:08;;;;;;;16.30;10.85;;;;;;;20.58;100.00;94719.16;4880526;29;20037;-86
2023/08/17 02:19:33;;;;;;;13.20;10.98;;;;;;;20.63;100.00;94721.63;4863558;29;20041;-87
2023/08/17 02:21:59;;;;;;;15.32;10.60;;;;;;;20.39;100.00;94724.13;4863425;29;20458;-87
2023/08/17 02:24:25;;;;;;;16.58;10.90;;;;;;;20.48;100.00;94722.97;4863679;29;20044;-87
2023/08/17 02:26:50;;;;;;;13.95;10.50;;;;;;;20.49;100.00;94724.53;4863853;29;20107;-87
2023/08/17 02:29:16;;;;;;;13.05;10.68;;;;;;;20.40;100.00;94713.16;4878885;29;20152;-87
2023/08/17 02:31:41;;;;;;;12.68;10.75;;;;;;;20.49;100.00;94715.78;4863664;29;20036;-87
2023/08/17 02:34:07;;;;;;;16.15;11.23;;;;;;;20.02;100.00;94719.28;4863580;29;20351;-87
2023/08/17 02:36:33;;;;;;;15.23;11.80;;;;;;;20.05;100.00;94710.66;4879141;29;20474;-87
2023/08/17 02:38:58;;;;;;;14.05;10.95;;;;;;;20.19;100.00;94713.09;4863756;29;20039;-87
2023/08/17 02:41:24;;;;;;;20.13;11.40;;;;;;;20.00;100.00;94708.94;4863566;29;20044;-87
2023/08/17 02:43:49;;;;;;;15.80;11.23;;;;;;;20.15;100.00;94712.16;4880171;29;20033;-86
2023/08/17 02:46:15;;;;;;;17.08;11.43;;;;;;;19.85;100.00;94710.22;4863288;29;20044;-87
2023/08/17 02:48:40;;;;;;;14.93;11.20;;;;;;;19.91;100.00;94708.94;4863550;29;20036;-86
2023/08/17 02:51:06;;;;;;;15.77;11.50;;;;;;;19.78;100.00;94704.59;4863279;29;20028;-87
2023/08/17 02:53:31;;;;;;;15.80;11.52;;;;;;;19.84;100.00;94711.34;4880268;29;20033;-87
2023/08/17 02:55:56;;;;;;;14.57;12.18;;;;;;;19.84;100.00;94708.66;4863449;29;20439;-86
2023/08/17 02:58:22;;;;;;;15.35;11.32;;;;;;;20.01;100.00;94699.09;4863134;29;20033;-87
2023/08/17 03:00:47;;;;;;;14.43;11.32;;;;;;;20.13;100.00;94703.72;4863697;29;20036;-86
2023/08/17 03:03:14;;;;;;;17.92;12.20;;;;;;;19.87;100.00;94700.06;4863450;29;20048;-87
2023/08/17 03:05:39;;;;;;;16.33;12.20;;;;;;;19.86;100.00;94695.84;4863444;29;20448;-87
2023/08/17 03:08:05;;;;;;;17.60;12.48;;;;;;;19.69;100.00;94685.28;4880050;29;20040;-87
2023/08/17 03:10:30;;;;;;;14.30;12.05;;;;;;;19.71;100.00;94689.16;4863881;29;20127;-86
2023/08/17 03:12:56;;;;;;;14.30;12.50;;;;;;;19.93;100.00;94692.72;4880032;29;20419;-87
2023/08/17 03:15:21;;;;;;;14.90;11.85;;;;;;;19.78;100.00;94684.13;4863538;29;20404;-87
2023/08/17 03:17:47;;;;;;;19.13;12.63;;;;;;;19.64;100.00;94688.88;4848177;29;20040;-86
2023/08/17 03:20:12;;;;;;;16.27;11.98;;;;;;;19.61;100.00;94684.19;4863124;29;20045;-87
2023/08/17 03:22:37;;;;;;;12.85;11.27;;;;;;;19.81;100.00;94689.91;4879749;29;20040;-87
2023/08/17 03:25:03;;;;;;;16.15;12.02;;;;;;;19.63;100.00;94688.06;4863154;29;20036;-86
2023/08/17 03:27:29;;;;;;;14.65;12.05;;;;;;;19.58;100.00;94685.59;4862880;29;20111;-87
2023/08/17 03:29:54;;;;;;;16.23;12.07;;;;;;;19.88;100.00;94684.91;4879980;29;20455;-86
2023/08/17 03:32:19;;;;;;;18.30;11.30;;;;;;;19.82;100.00;94686.94;4863631;29;20040;-87
2023/08/17 03:34:45;;;;;;;13.82;11.18;;;;;;;19.74;100.00;94690.41;4882830;29;20351;-87
2023/08/17 03:37:11;;;;;;;14.40;12.43;;;;;;;20.06;100.00;94691.72;4884082;29;20431;-87
2023/08/17 03:39:36;;;;;;;18.77;11.88;;;;;;;20.01;100.00;94691.13;4884732;29;20033;-86
2023/08/17 03:42:01;;;;;;;18.15;11.43;;;;;;;19.91;100.00;94687.69;4885364;29;20037;-86
2023/08/17 03:44:27;;;;;;;14.27;12.10;;;;;;;19.84;100.00;94697.25;4868523;29;20128;-87
2023/08/17 03:46:52;;;;;;;15.98;12.15;;;;;;;19.68;100.00;94694.34;4891106;29;20032;-87
2023/08/17 03:49:18;;;;;;;17.90;12.63;;;;;;;19.79;100.00;94700.84;4873634;29;20128;-86
2023/08/17 03:51:43;;;;;;;16.48;12.50;;;;;;;19.88;100.00;94700.84;4895141;29;20335;-86
2023/08/17 03:54:08;;;;;;;18.42;12.93;;;;;;;19.79;100.00;94700.84;4871388;29;20037;-87
2023/08/17 03:56:34;;;;;;;19.10;12.30;;;;;;;19.53;100.00;94700.94;4885528;29;20041;-86
2023/08/17 03:58:59;;;;;;;13.70;11.88;;;;;;;19.73;100.00;94702.94;4868779;29;20101;-87
2023/08/17 04:01:25;;;;;;;17.35;13.35;;;;;;;19.43;100.00;94707.34;4885704;29;20124;-87
2023/08/17 04:03:50;;;;;;;13.45;12.02;;;;;;;19.46;100.00;94709.38;4868197;29;20037;-86
2023/08/17 04:06:15;;;;;;;20.45;12.77;;;;;;;19.55;100.00;94710.16;4885006;29;20037;-86
2023/08/17 04:08:41;;;;;;;16.02;12.40;;;;;;;19.62;100.00;94707.00;4868575;29;20132;-87
2023/08/17 04:11:06;;;;;;;14.77;12.15;;;;;;;19.85;100.00;94707.56;4868829;29;20044;-86
2023/08/17 04:13:35;;;;;;;15.30;12.27;;;;;;;19.85;100.00;94701.47;4868260;29;20530;-87
2023/08/17 04:16:01;;;;;;;14.00;12.00;;;;;;;19.97;100.00;94700.84;4867230;29;20039;-87
2023/08/17 04:18:26;;;;;;;14.13;11.40;;;;;;;19.87;100.00;94701.91;4868474;29;20124;-86
2023/08/17 04:20:51;;;;;;;16.75;12.05;;;;;;;19.78;100.00;94702.75;4868309;29;20029;-87
2023/08/17 04:23:17;;;;;;;16.48;13.30;;;;;;;19.53;100.00;94707.03;4885006;29;20129;-87
2023/08/17 04:25:43;;;;;;;17.35;12.38;;;;;;;19.36;100.00;94700.63;4884868;29;20029;-86
2023/08/17 04:28:09;;;;;;;17.20;13.45;;;;;;;19.49;100.00;94698.13;4868293;29;20033;-87
2023/08/17 04:30:34;;;;;;;17.48;12.48;;;;;;;19.64;100.00;94700.25;4868273;29;20765;-86
2023/08/17 04:33:00;;;;;;;15.73;12.07;;;;;;;19.74;100.00;94703.69;4883572;29;20032;-86
2023/08/17 04:35:25;;;;;;;14.18;11.63;;;;;;;19.90;100.00;94703.97;4867838;29;20447;-86
2023/08/17 04:37:51;;;;;;;16.00;12.52;;;;;;;19.97;100.00;94698.94;4883554;29;20108;-87
2023/08/17 04:40:16;;;;;;;17.85;12.60;;;;;;;19.73;100.00;94702.13;4884701;29;20129;-87
2023/08/17 04:42:42;;;;;;;20.40;12.85;;;;;;;19.80;100.00;94705.09;4867914;29;20041;-87
2023/08/17 04:45:08;;;;;;;14.00;12.15;;;;;;;19.90;100.00;94711.94;4867559;29;20025;-87
2023/08/17 04:47:33;;;;;;;14.18;11.55;;;;;;;19.87;100.00;94710.69;4884654;29;20025;-86
2023/08/17 04:49:59;;;;;;;15.55;11.77;;;;;;;19.95;100.00;94706.47;4852446;29;20036;-86
2023/08/17 04:52:24;;;;;;;15.82;12.77;;;;;;;19.54;100.00;94703.28;4867758;29;20029;-87
2023/08/17 04:54:50;;;;;;;22.83;13.18;;;;;;;19.25;100.00;94710.03;4867814;29;20025;-86
2023/08/17 04:57:15;;;;;;;17.80;13.40;;;;;;;19.25;100.00;94704.72;4867887;29;20116;-86
2023/08/17 04:59:40;;;;;;;18.60;13.50;;;;;;;19.50;100.00;94703.13;4867566;29;20025;-86
2023/08/17 05:02:06;;;;;;;20.70;12.80;;;;;;;19.79;100.00;94711.47;4867527;29;20031;-86
2023/08/17 05:04:31;;;;;;;20.48;13.35;;;;;;;19.78;100.00;94710.72;4867272;29;20346;-86
2023/08/17 05:06:57;;;;;;;17.00;13.93;;;;;;;19.57;100.00;94705.31;4867411;29;20413;-86
2023/08/17 05:09:22;;;;;;;16.83;14.05;;;;;;;19.62;100.00;94705.13;4867387;29;20028;-87
2023/08/17 05:11:48;;;;;;;19.10;13.30;;;;;;;19.74;100.00;94704.47;4852454;29;20025;-87
2023/08/17 05:14:13;;;;;;;18.92;14.00;;;;;;;19.80;100.00;94709.63;4867430;29;20025;-87
2023/08/17 05:16:38;;;;;;;19.25;12.75;;;;;;;19.81;100.00;94711.19;4884118;29;20025;-87
2023/08/17 05:19:04;;;;;;;16.00;13.07;;;;;;;19.95;100.00;94719.75;4867449;29;20040;-87
2023/08/17 05:21:29;;;;;;;18.83;13.98;;;;;;;20.27;100.00;94709.63;4884058;29;20029;-86
2023/08/17 05:23:55;;;;;;;16.77;12.70;;;;;;;20.43;100.00;94706.41;4883647;29;20120;-86
2023/08/17 05:26:20;;;;;;;18.77;12.77;;;;;;;20.55;100.00;94706.50;4867036;29;20320;-87
2023/08/17 05:28:46;;;;;;;18.27;12.60;;;;;;;20.47;100.00;94710.75;4867333;29;20036;-87
2023/08/17 05:31:11;;;;;;;17.20;12.90;;;;;;;20.22;100.00;94709.81;4867226;29;20029;-87
2023/08/17 05:33:37;;;;;;;16.02;12.98;;;;;;;20.46;100.00;94722.50;4867494;29;20461;-86
2023/08/17 05:36:02;;;;;;;17.92;13.30;;;;;;;20.38;100.00;94719.91;4866831;29;20052;-87
2023/08/17 05:38:28;;;;;;;20.75;13.10;;;;;;;20.47;100.00;94715.31;4883689;29;20029;-87
2023/08/17 05:40:57;;;;;;;14.82;12.35;;;;;;;20.86;100.00;94717.91;4883716;29;20034;-87
2023/08/17 05:43:23;;;;;;;16.30;12.35;;;;;;;21.11;100.00;94720.72;4866920;29;20307;-87
2023/08/17 05:45:49;;;;;;;13.18;11.57;;;;;;;21.28;100.00;94717.13;4866732;29;20036;-86
2023/08/17 05:48:14;;;;;;;15.25;11.63;;;;;;;21.41;100.00;94721.38;4866753;29;20036;-86
2023/08/17 05:50:43;;;;;;;16.55;11.63;;;;;;;21.41;100.00;94716.06;4883308;29;20025;-86
2023/08/17 05:53:30;;;;;;;14.52;11.48;;;;;;;21.60;100.00;94714.81;4882694;29;20543;-87
2023/08/17 05:55:56;;;;;;;17.98;11.77;;;;;;;21.75;100.00;94716.06;4882770;29;20055;-87
2023/08/17 05:58:21;;;;;;;22.75;12.57;;;;;;;21.45;100.00;94721.50;4883474;29;20033;-86
2023/08/17 06:00:46;;;;;;;14.93;11.55;;;;;;;21.66;100.00;94720.72;4866534;29;20033;-85
2023/08/17 06:03:12;;;;;;;15.32;11.20;;;;;;;21.91;100.00;94718.09;4883363;29;20442;-86
2023/08/17 06:05:37;;;;;;;18.38;11.57;;;;;;;21.66;100.00;94720.72;4881747;29;20037;-87
2023/08/17 06:08:03;;;;;;;12.80;11.30;;;;;;;22.03;100.00;94708.25;4888471;29;20032;-86
2023/08/17 06:10:29;;;;;;;13.50;10.88;;;;;;;22.27;100.00;94711.25;4879756;29;20084;-87
2023/08/17 06:12:55;;;;;;;14.35;11.80;;;;;;;22.02;100.00;94708.56;4872024;29;20111;-88
2023/08/17 06:15:21;;;;;;;17.38;12.05;;;;;;;21.82;100.00;94710.19;4866655;29;20120;-87
2023/08/17 06:17:49;;;;;;;13.23;11.50;;;;;;;21.87;100.00;94710.75;4881980;29;20033;-87
2023/08/17 06:20:15;;;;;;;18.08;12.52;;;;;;;21.92;100.00;94712.44;4866845;29;20036;-87
2023/08/17 06:22:40;;;;;;;20.08;11.98;;;;;;;22.42;100.00;94715.13;4866424;29;20436;-86
2023/08/17 06:25:07;;;;;;;14.40;10.82;;;;;;;22.86;100.00;94717.22;4866113;29;20039;-87
2023/08/17 06:27:33;;;;;;;15.20;10.68;;;;;;;22.83;100.00;94729.34;4883163;29;20457;-87
2023/08/17 06:29:58;;;;;;;14.88;11.32;;;;;;;22.86;100.00;94715.31;4882998;29;20029;-88
2023/08/17 06:32:24;;;;;;;16.10;10.65;;;;;;;23.20;100.00;94723.13;4883005;29;20355;-86
2023/08/17 06:34:49;;;;;;;13.00;10.35;;;;;;;23.56;100.00;94718.00;4882900;29;20037;-88
2023/08/17 06:37:15;;;;;;;11.82;10.48;;;;;;;23.26;100.00;94729.00;4866120;29;20056;-86
2023/08/17 06:39:40;;;;;;;14.10;10.65;;;;;;;23.66;100.00;94717.50;4882655;29;20033;-87
2023/08/17 06:42:06;;;;;;;13.20;10.40;;;;;;;23.43;100.00;94723.41;4882744;29;20029;-87
2023/08/17 06:44:31;;;;;;;13.10;9.75;;;;;;;23.58;100.00;94716.56;4865810;29;20098;-87
2023/08/17 06:46:58;;;;;;;17.73;10.70;;;;;;;23.64;100.00;94719.75;4866325;29;20033;-88
2023/08/17 06:49:24;;;;;;;13.95;10.43;;;;;;;23.46;100.00;94716.59;4866436;29;20033;-88
2023/08/17 06:51:50;;;;;;;15.90;10.73;;;;;;;23.72;100.00;94704.66;4866311;29;20033;-88
2023/08/17 06:54:15;;;;;;;13.07;9.93;;;;;;;23.27;100.00;94715.34;4850905;29;20428;-87
2023/08/17 06:56:40;;;;;;;14.40;10.35;;;;;;;23.81;100.00;94710.63;4866437;29;20106;-87
2023/08/17 06:59:06;;;;;;;12.80;10.57;;;;;;;23.85;100.00;94710.72;4883026;29;20029;-87
2023/08/17 07:01:32;;;;;;;12.20;9.52;;;;;;;23.94;100.00;94724.72;4866477;29;20033;-87
2023/08/17 07:03:57;;;;;;;13.32;10.18;;;;;;;23.70;100.00;94718.38;4865966;29;20033;-87
2023/08/17 07:06:24;;;;;;;15.88;10.68;;;;;;;23.68;100.00;94715.25;4851037;29;20095;-87
2023/08/17 07:08:49;;;;;;;14.70;10.88;;;;;;;24.07;100.00;94720.06;4868890;29;20030;-85
2023/08/17 07:11:15;;;;;;;13.15;9.93;;;;;;;23.91;100.00;94711.22;4886111;29;20447;-87
2023/08/17 07:13:40;;;;;;;12.98;10.43;;;;;;;24.01;100.00;94721.44;4886303;29;20025;-91
2023/08/17 07:16:06;;;;;;;13.00;10.15;;;;;;;24.12;100.00;94722.50;4869277;29;20033;-89
2023/08/17 07:18:31;;;;;;;13.57;10.63;;;;;;;24.43;100.00;94728.97;4869547;29;20499;-90
2023/08/17 07:20:56;;;;;;;18.05;10.60;;;;;;;24.10;100.00;94730.09;4869293;29;20070;-90
2023/08/17 07:23:22;;;;;;;13.07;10.30;;;;;;;24.51;100.00;94727.22;4869143;29;20044;-90
2023/08/17 07:25:48;;;;;;;12.63;10.07;;;;;;;24.80;100.00;94727.88;4885621;29;20025;-89
2023/08/17 07:28:15;;;;;;;14.45;10.48;;;;;;;24.77;100.00;94727.78;4885227;29;20100;-85
2023/08/17 07:30:41;;;;;;;15.77;10.82;;;;;;;24.56;100.00;94726.94;4885743;29;20351;-86
2023/08/17 07:33:06;;;;;;;15.27;10.77;;;;;;;24.81;100.00;94724.06;4885720;29;20029;-86
2023/08/17 07:35:31;;;;;;;14.57;10.52;;;;;;;24.78;100.00;94726.66;4885493;29;20067;-87
2023/08/17 07:37:57;;;;;;;13.23;10.95;;;;;;;24.55;100.00;94727.31;4878070;29;20032;-86
2023/08/17 07:40:22;;;;;;;15.32;10.90;;;;;;;24.12;100.00;94727.84;4903115;29;20024;-92
2023/08/17 07:42:48;;;;;;;19.75;10.65;;;;;;;24.09;100.00;94722.41;4903276;29;20025;-90
2023/08/17 07:45:13;;;;;;;15.50;10.20;;;;;;;24.47;100.00;94730.94;4887503;29;20043;-91
2023/08/17 07:47:39;;;;;;;11.32;9.93;;;;;;;24.83;100.00;94729.09;4887685;29;20107;-90
2023/08/17 07:50:05;;;;;;;18.30;10.05;;;;;;;24.50;100.00;94725.66;4903082;29;20036;-94
2023/08/17 07:52:31;;;;;;;12.73;9.40;;;;;;;25.07;100.00;94729.94;4887352;29;20038;-90
2023/08/17 07:54:56;;;;;;;14.52;9.68;;;;;;;24.73;100.00;94732.28;4881759;29;20490;-92
2023/08/17 07:57:22;;;;;;;16.85;10.07;;;;;;;24.80;100.00;94732.44;4887317;29;20443;-90
2023/08/17 07:59:47;;;;;;;22.98;10.13;;;;;;;24.94;100.00;94732.75;4868646;29;20040;-90
2023/08/17 08:02:13;;;;;;;12.73;9.38;;;;;;;25.16;100.00;94732.41;4885149;29;20441;-89
2023/08/17 08:04:38;;;;;;;13.50;9.38;;;;;;;25.23;100.00;94733.34;4868585;29;20084;-89
2023/08/17 08:07:04;;;;;;;11.40;9.65;;;;;;;25.61;100.00;94733.72;4885611;29;20052;-89
2023/08/17 08:09:29;;;;;;;13.20;9.45;;;;;;;25.78;100.00;94737.09;4868462;29;20443;-91
2023/08/17 08:11:55;;;;;;;11.93;9.60;;;;;;;25.95;100.00;94739.28;4868747;29;20033;-90
2023/08/17 08:14:20;;;;;;;11.32;9.02;;;;;;;25.93;100.00;94738.09;4868432;29;20033;-89
2023/08/17 08:16:47;;;;;;;9.95;8.38;;;;;;;25.88;100.00;94738.41;4884243;29;20029;-89
2023/08/17 08:19:12;;;;;;;12.30;9.65;;;;;;;26.02;100.00;94725.22;4884634;29;20061;-88
2023/08/17 08:21:37;;;;;;;14.02;9.63;;;;;;;26.15;100.00;94735.78;4868401;29;20068;-89
2023/08/17 08:24:03;;;;;;;12.32;9.30;;;;;;;26.20;100.00;94738.97;4890103;29;20033;-89
2023/08/17 08:26:28;;;;;;;16.38;9.52;;;;;;;26.14;100.00;94743.06;4886928;29;20033;-89
2023/08/17 08:28:54;;;;;;;11.68;8.70;;;;;;;26.46;100.00;94731.31;4886842;29;20033;-89
2023/08/17 08:31:19;;;;;;;11.88;8.98;;;;;;;26.70;100.00;94723.97;4903654;29;20028;-92
2023/08/17 08:33:45;;;;;;;13.00;9.07;;;;;;;26.49;100.00;94742.13;4886542;29;20032;-89
2023/08/17 08:36:10;;;;;;;13.77;8.88;;;;;;;26.61;100.00;94738.44;4903208;29;20028;-90
2023/08/17 08:38:36;;;;;;;14.23;8.50;;;;;;;26.84;100.00;94739.50;4886551;29;20434;-91
2023/08/17 08:41:02;;;;;;;10.75;8.32;;;;;;;26.89;100.00;94731.16;4886381;29;20032;-89
2023/08/17 08:43:27;;;;;;;11.75;7.60;;;;;;;27.10;100.00;94733.34;4871030;29;20087;-89
2023/08/17 08:45:54;;;;;;;11.05;9.07;;;;;;;27.00;100.00;94725.94;4886657;29;20064;-91
2023/08/17 08:48:22;;;;;;;11.90;8.23;;;;;;;26.86;100.00;94730.00;4871213;29;20111;-90
2023/08/17 08:50:50;;;;;;;14.93;8.48;;;;;;;26.87;100.00;94728.84;4886420;29;20084;-92
2023/08/17 08:53:17;;;;;;;17.60;8.85;;;;;;;27.03;100.00;94735.97;4872093;29;20025;-89
2023/08/17 08:55:55;;;;;;;11.63;8.90;;;;;;;27.00;100.00;94731.31;4882833;29;20463;-89
2023/08/17 08:58:21;;;;;;;10.80;8.55;;;;;;;27.21;100.00;94728.88;4883269;29;20033;-89
2023/08/17 09:00:47;;;;;;;12.85;8.95;;;;;;;27.43;100.00;94728.34;4868016;29;20375;-90
2023/08/17 09:03:14;;;;;;;11.85;8.55;;;;;;;27.17;100.00;94735.34;4867648;29;20060;-92
2023/08/17 09:05:40;;;;;;;12.02;8.93;;;;;;;26.82;100.00;94731.81;4867472;29;20518;-94
2023/08/17 09:08:09;;;;;;;11.48;9.18;;;;;;;27.07;100.00;94729.50;4867710;29;20033;-90
2023/08/17 09:10:35;;;;;;;10.98;8.38;;;;;;;26.98;100.00;94726.28;4883176;29;20033;-91
2023/08/17 09:13:00;;;;;;;11.82;8.88;;;;;;;27.09;100.00;94721.84;4883953;29;20032;-90
2023/08/17 09:15:26;;;;;;;12.70;9.13;;;;;;;27.38;100.00;94719.47;4867380;29;20451;-89
2023/08/17 09:17:51;;;;;;;10.88;7.88;;;;;;;27.64;100.00;94717.06;4867539;29;20077;-90
2023/08/17 09:20:35;;;;;;;12.40;8.35;;;;;;;27.73;100.00;94716.78;4883906;29;20178;-91
2023/08/17 09:23:03;;;;;;;13.52;8.15;;;;;;;28.01;100.00;94718.97;4883784;29;20039;-92
2023/08/17 09:25:29;;;;;;;12.57;8.25;;;;;;;27.33;100.00;94716.34;4867403;29;20040;-91
2023/08/17 09:27:56;;;;;;;16.73;8.57;;;;;;;28.01;100.00;94708.19;4867382;29;20033;-90
2023/08/17 09:30:22;;;;;;;10.23;7.88;;;;;;;28.17;100.00;94715.28;4866247;29;20040;-89
2023/08/17 09:32:47;;;;;;;13.60;8.00;;;;;;;28.36;100.00;94719.66;4867290;29;20320;-91
2023/08/17 09:35:14;;;;;;;17.67;8.85;;;;;;;28.33;98.43;94717.69;4867755;29;20061;-92
2023/08/17 09:37:39;;;;;;;11.65;7.97;;;;;;;28.13;100.00;94711.75;4866917;29;20032;-89
2023/08/17 09:40:05;;;;;;;12.35;8.15;;;;;;;28.51;100.00;94717.81;4883713;29;20060;-89
2023/08/17 09:42:34;;;;;;;9.18;7.72;;;;;;;28.14;100.00;94707.94;4883875;29;20040;-92
2023/08/17 09:45:01;;;;;;;12.70;7.13;;;;;;;28.63;98.30;94709.44;4850848;29;20041;-91
2023/08/17 09:47:26;;;;;;;9.02;7.30;;;;;;;28.71;93.25;94704.09;4883208;29;20037;-93
2023/08/17 09:49:52;;;;;;;9.77;7.07;;;;;;;28.04;98.79;94699.38;4883272;29;20033;-91
2023/08/17 09:52:24;;;;;;;9.77;6.85;;;;;;;28.35;96.57;94705.41;4866791;29;20131;-91
2023/08/17 09:54:52;;;;;;;10.80;7.53;;;;;;;28.38;88.69;94708.50;4882055;29;20060;-90
2023/08/17 09:57:20;;;;;;;10.90;7.60;;;;;;;28.25;85.06;94702.63;4866680;29;20085;-89
2023/08/17 09:59:46;;;;;;;10.27;7.47;;;;;;;28.07;92.82;94706.72;4866960;29;20040;-91
2023/08/17 10:02:19;;;;;;;7.65;6.80;;;;;;;28.37;88.92;94696.97;4883127;29;20032;-91
2023/08/17 10:04:50;;;;;;;8.60;7.32;;;;;;;28.59;89.62;94705.97;4883981;29;20066;-90
2023/08/17 10:07:18;;;;;;;10.18;6.80;;;;;;;28.94;90.12;94701.16;4867185;29;20060;-91
2023/08/17 10:09:47;;;;;;;8.43;6.47;;;;;;;28.78;83.10;94694.13;4867197;29;20108;-91
2023/08/17 10:12:15;;;;;;;13.35;7.10;;;;;;;28.73;85.60;94697.16;4866777;29;20033;-89
2023/08/17 10:14:46;;;;;;;13.65;7.45;;;;;;;28.52;93.86;94689.72;4882193;29;20033;-91
2023/08/17 10:17:25;;;;;;;10.38;7.25;;;;;;;28.24;92.91;94688.38;4866904;29;20037;-92
2023/08/17 10:19:54;;;;;;;10.70;7.45;;;;;;;28.14;88.72;94679.06;4866741;29;20043;-94
2023/08/17 10:22:30;;;;;;;10.45;7.15;;;;;;;28.31;88.06;94684.97;4887612;29;20118;-92
2023/08/17 10:24:59;;;;;;;12.05;7.25;;;;;;;28.30;90.20;94672.66;4871227;29;20045;-92
2023/08/17 10:27:25;;;;;;;10.00;7.03;;;;;;;28.61;90.58;94676.72;4871215;29;20469;-90
2023/08/17 10:29:51;;;;;;;11.98;7.50;;;;;;;28.05;86.44;94682.06;4885460;29;20100;-90
2023/08/17 10:32:16;;;;;;;12.07;7.82;;;;;;;28.37;96.05;94678.09;4885227;29;20037;-91
2023/08/17 10:34:42;;;;;;;13.23;7.55;;;;;;;28.04;84.32;94677.84;4901084;29;20035;-92
2023/08/17 10:37:08;;;;;;;15.30;7.25;;;;;;;28.52;90.99;94678.94;4900875;29;20342;-90
2023/08/17 10:39:34;;;;;;;10.77;6.43;;;;;;;28.75;91.21;94676.00;4901003;29;20037;-93
2023/08/17 10:42:02;;;;;;;16.42;7.28;;;;;;;28.68;84.92;94680.56;4902805;29;20111;-93
2023/08/17 10:44:47;;;;;;;8.02;7.15;;;;;;;28.68;87.10;94680.56;4888962;29;20084;-92
2023/08/17 10:47:32;;;;;;;14.15;7.88;;;;;;;28.54;87.98;94673.19;4888956;29;20040;-93
2023/08/17 10:50:05;;;;;;;14.25;7.40;;;;;;;29.10;87.33;94681.19;4903818;29;20051;-93
2023/08/17 10:52:32;;;;;;;10.68;7.40;;;;;;;29.15;88.44;94670.81;4889728;29;20068;-92
2023/08/17 10:55:07;;;;;;;9.73;7.60;;;;;;;29.14;82.40;94661.19;4904616;29;20123;-90
2023/08/17 10:57:35;;;;;;;9.20;7.22;;;;;;;28.64;87.08;94670.56;4904683;29;20032;-91
2023/08/17 11:00:20;;;;;;;13.70;6.90;;;;;;;28.35;84.07;94673.06;4888948;29;20035;-92
2023/08/17 11:02:52;;;;;;;12.40;7.05;;;;;;;29.28;83.65;94671.22;4905025;29;20028;-92
2023/08/17 11:05:51;;;;;;;8.98;7.13;;;;;;;28.98;85.27;94672.28;4901516;29;20040;-92
2023/08/17 11:08:30;;;;;;;10.07;7.25;;;;;;;28.95;85.19;94658.78;4866486;29;20461;-91
2023/08/17 11:11:08;;;;;;;12.02;7.40;;;;;;;29.34;81.64;94642.75;4871006;29;20032;-92
2023/08/17 11:13:36;;;;;;;11.27;6.97;;;;;;;29.76;80.49;94640.50;4869638;29;20029;-91